sensor_id;sensor_type;location;lat;lon;timestamp;P1;durP1;ratioP1;P2;durP2;ratioP2
16314;SDS011;8266;52.150;4.768;2023-04-03T00:00:49;2.67;;;1.05;;
16314;SDS011;8266;52.150;4.768;2023-04-03T00:03:18;3.10;;;1.60;;
16314;SDS011;8266;52.150;4.768;2023-04-03T00:05:46;3.28;;;1.45;;
16314;SDS011;8266;52.150;4.768;2023-04-03T00:08:13;1.38;;;1.27;;
16314;SDS011;8266;52.150;4.768;2023-04-03T00:10:40;1.83;;;1.52;;
16314;SDS011;8266;52.150;4.768;2023-04-03T00:13:07;4.78;;;1.60;;
16314;SDS011;8266;52.150;4.768;2023-04-03T00:15:36;1.27;;;1.17;;
16314;SDS011;8266;52.150;4.768;2023-04-03T00:18:04;3.47;;;1.58;;
16314;SDS011;8266;52.150;4.768;2023-04-03T00:20:32;2.05;;;1.23;;
16314;SDS011;8266;52.150;4.768;2023-04-03T00:23:00;1.67;;;1.13;;
16314;SDS011;8266;52.150;4.768;2023-04-03T00:25:28;1.80;;;1.25;;
16314;SDS011;8266;52.150;4.768;2023-04-03T00:27:55;1.88;;;1.30;;
16314;SDS011;8266;52.150;4.768;2023-04-03T00:30:23;2.35;;;1.27;;
16314;SDS011;8266;52.150;4.768;2023-04-03T00:32:50;2.97;;;1.45;;
16314;SDS011;8266;52.150;4.768;2023-04-03T00:35:19;3.17;;;1.33;;
16314;SDS011;8266;52.150;4.768;2023-04-03T00:37:50;2.88;;;1.02;;
16314;SDS011;8266;52.150;4.768;2023-04-03T00:40:18;1.92;;;1.17;;
16314;SDS011;8266;52.150;4.768;2023-04-03T00:42:48;1.60;;;1.30;;
16314;SDS011;8266;52.150;4.768;2023-04-03T00:45:25;2.60;;;1.23;;
16314;SDS011;8266;52.150;4.768;2023-04-03T00:47:55;2.20;;;1.50;;
16314;SDS011;8266;52.150;4.768;2023-04-03T00:50:24;2.65;;;1.23;;
16314;SDS011;8266;52.150;4.768;2023-04-03T00:52:53;1.83;;;1.25;;
16314;SDS011;8266;52.150;4.768;2023-04-03T00:55:21;3.63;;;1.30;;
16314;SDS011;8266;52.150;4.768;2023-04-03T00:57:49;1.52;;;1.27;;
16314;SDS011;8266;52.150;4.768;2023-04-03T01:00:19;2.40;;;1.30;;
16314;SDS011;8266;52.150;4.768;2023-04-03T01:02:47;1.75;;;1.10;;
16314;SDS011;8266;52.150;4.768;2023-04-03T01:05:14;2.38;;;1.48;;
16314;SDS011;8266;52.150;4.768;2023-04-03T01:07:43;2.47;;;1.33;;
16314;SDS011;8266;52.150;4.768;2023-04-03T01:10:14;2.17;;;1.50;;
16314;SDS011;8266;52.150;4.768;2023-04-03T01:12:45;1.85;;;1.50;;
16314;SDS011;8266;52.150;4.768;2023-04-03T01:15:14;1.40;;;1.30;;
16314;SDS011;8266;52.150;4.768;2023-04-03T01:17:45;3.72;;;1.65;;
16314;SDS011;8266;52.150;4.768;2023-04-03T01:20:19;1.83;;;1.30;;
16314;SDS011;8266;52.150;4.768;2023-04-03T01:23:06;1.90;;;1.38;;
16314;SDS011;8266;52.150;4.768;2023-04-03T01:25:50;1.65;;;1.20;;
16314;SDS011;8266;52.150;4.768;2023-04-03T01:28:22;2.13;;;1.20;;
16314;SDS011;8266;52.150;4.768;2023-04-03T01:30:55;2.17;;;1.27;;
16314;SDS011;8266;52.150;4.768;2023-04-03T01:33:28;2.90;;;1.30;;
16314;SDS011;8266;52.150;4.768;2023-04-03T01:35:57;3.42;;;1.55;;
16314;SDS011;8266;52.150;4.768;2023-04-03T01:38:24;1.75;;;1.38;;
16314;SDS011;8266;52.150;4.768;2023-04-03T01:40:52;2.42;;;1.50;;
16314;SDS011;8266;52.150;4.768;2023-04-03T01:43:19;2.53;;;1.40;;
16314;SDS011;8266;52.150;4.768;2023-04-03T01:45:48;3.58;;;1.33;;
16314;SDS011;8266;52.150;4.768;2023-04-03T01:48:17;2.17;;;1.25;;
16314;SDS011;8266;52.150;4.768;2023-04-03T01:50:46;2.13;;;1.27;;
16314;SDS011;8266;52.150;4.768;2023-04-03T01:53:13;1.60;;;1.25;;
16314;SDS011;8266;52.150;4.768;2023-04-03T01:55:41;3.47;;;1.50;;
16314;SDS011;8266;52.150;4.768;2023-04-03T01:58:08;3.58;;;1.50;;
16314;SDS011;8266;52.150;4.768;2023-04-03T02:00:36;2.97;;;1.73;;
16314;SDS011;8266;52.150;4.768;2023-04-03T02:03:03;1.55;;;1.25;;
16314;SDS011;8266;52.150;4.768;2023-04-03T02:05:30;3.85;;;1.38;;
16314;SDS011;8266;52.150;4.768;2023-04-03T02:07:59;2.58;;;1.45;;
16314;SDS011;8266;52.150;4.768;2023-04-03T02:10:26;1.85;;;1.27;;
16314;SDS011;8266;52.150;4.768;2023-04-03T02:12:53;2.65;;;1.60;;
16314;SDS011;8266;52.150;4.768;2023-04-03T02:15:20;1.80;;;1.30;;
16314;SDS011;8266;52.150;4.768;2023-04-03T02:17:48;1.77;;;1.23;;
16314;SDS011;8266;52.150;4.768;2023-04-03T02:20:15;2.70;;;1.40;;
16314;SDS011;8266;52.150;4.768;2023-04-03T02:22:42;3.05;;;1.60;;
16314;SDS011;8266;52.150;4.768;2023-04-03T02:25:10;3.33;;;1.40;;
16314;SDS011;8266;52.150;4.768;2023-04-03T02:27:38;2.58;;;1.30;;
16314;SDS011;8266;52.150;4.768;2023-04-03T02:30:05;1.88;;;1.35;;
16314;SDS011;8266;52.150;4.768;2023-04-03T02:32:35;2.55;;;1.50;;
16314;SDS011;8266;52.150;4.768;2023-04-03T02:35:03;3.00;;;1.48;;
16314;SDS011;8266;52.150;4.768;2023-04-03T02:37:31;2.03;;;1.70;;
16314;SDS011;8266;52.150;4.768;2023-04-03T02:39:58;2.42;;;1.50;;
16314;SDS011;8266;52.150;4.768;2023-04-03T02:42:26;3.00;;;1.67;;
16314;SDS011;8266;52.150;4.768;2023-04-03T02:44:54;2.83;;;1.50;;
16314;SDS011;8266;52.150;4.768;2023-04-03T02:47:21;3.00;;;1.40;;
16314;SDS011;8266;52.150;4.768;2023-04-03T02:49:48;2.08;;;1.65;;
16314;SDS011;8266;52.150;4.768;2023-04-03T02:52:15;3.33;;;1.70;;
16314;SDS011;8266;52.150;4.768;2023-04-03T02:54:42;3.20;;;1.80;;
16314;SDS011;8266;52.150;4.768;2023-04-03T02:57:09;2.47;;;1.23;;
16314;SDS011;8266;52.150;4.768;2023-04-03T02:59:38;2.83;;;1.48;;
16314;SDS011;8266;52.150;4.768;2023-04-03T03:02:06;2.55;;;1.75;;
16314;SDS011;8266;52.150;4.768;2023-04-03T03:04:33;2.08;;;1.58;;
16314;SDS011;8266;52.150;4.768;2023-04-03T03:07:00;2.53;;;1.88;;
16314;SDS011;8266;52.150;4.768;2023-04-03T03:09:28;3.17;;;1.65;;
16314;SDS011;8266;52.150;4.768;2023-04-03T03:11:55;2.15;;;1.63;;
16314;SDS011;8266;52.150;4.768;2023-04-03T03:14:25;2.47;;;1.70;;
16314;SDS011;8266;52.150;4.768;2023-04-03T03:16:54;4.07;;;1.63;;
16314;SDS011;8266;52.150;4.768;2023-04-03T03:19:21;3.38;;;1.88;;
16314;SDS011;8266;52.150;4.768;2023-04-03T03:21:48;5.13;;;1.73;;
16314;SDS011;8266;52.150;4.768;2023-04-03T03:24:16;4.22;;;1.80;;
16314;SDS011;8266;52.150;4.768;2023-04-03T03:26:43;3.35;;;1.70;;
16314;SDS011;8266;52.150;4.768;2023-04-03T03:29:10;4.90;;;2.05;;
16314;SDS011;8266;52.150;4.768;2023-04-03T03:31:37;5.65;;;1.88;;
16314;SDS011;8266;52.150;4.768;2023-04-03T03:34:06;1.80;;;1.30;;
16314;SDS011;8266;52.150;4.768;2023-04-03T03:36:33;2.53;;;1.60;;
16314;SDS011;8266;52.150;4.768;2023-04-03T03:39:00;2.35;;;1.88;;
16314;SDS011;8266;52.150;4.768;2023-04-03T03:41:27;3.83;;;2.10;;
16314;SDS011;8266;52.150;4.768;2023-04-03T03:43:54;2.55;;;1.48;;
16314;SDS011;8266;52.150;4.768;2023-04-03T03:46:23;4.80;;;1.85;;
16314;SDS011;8266;52.150;4.768;2023-04-03T03:48:50;2.95;;;1.63;;
16314;SDS011;8266;52.150;4.768;2023-04-03T03:51:19;2.10;;;1.60;;
16314;SDS011;8266;52.150;4.768;2023-04-03T03:53:46;4.18;;;1.55;;
16314;SDS011;8266;52.150;4.768;2023-04-03T03:56:13;3.58;;;1.88;;
16314;SDS011;8266;52.150;4.768;2023-04-03T03:58:42;1.45;;;1.30;;
16314;SDS011;8266;52.150;4.768;2023-04-03T04:01:09;2.83;;;1.80;;
16314;SDS011;8266;52.150;4.768;2023-04-03T04:03:36;1.80;;;1.58;;
16314;SDS011;8266;52.150;4.768;2023-04-03T04:06:03;4.07;;;1.70;;
16314;SDS011;8266;52.150;4.768;2023-04-03T04:08:32;4.95;;;2.10;;
16314;SDS011;8266;52.150;4.768;2023-04-03T04:10:59;1.98;;;1.45;;
16314;SDS011;8266;52.150;4.768;2023-04-03T04:13:26;3.78;;;1.73;;
16314;SDS011;8266;52.150;4.768;2023-04-03T04:15:53;2.22;;;1.70;;
16314;SDS011;8266;52.150;4.768;2023-04-03T04:18:21;2.22;;;1.75;;
16314;SDS011;8266;52.150;4.768;2023-04-03T04:20:48;5.18;;;1.75;;
16314;SDS011;8266;52.150;4.768;2023-04-03T04:23:16;3.88;;;2.08;;
16314;SDS011;8266;52.150;4.768;2023-04-03T04:25:45;2.60;;;1.77;;
16314;SDS011;8266;52.150;4.768;2023-04-03T04:28:13;4.20;;;1.80;;
16314;SDS011;8266;52.150;4.768;2023-04-03T04:30:40;3.10;;;1.70;;
16314;SDS011;8266;52.150;4.768;2023-04-03T04:33:07;3.05;;;1.77;;
16314;SDS011;8266;52.150;4.768;2023-04-03T04:35:35;2.72;;;1.98;;
16314;SDS011;8266;52.150;4.768;2023-04-03T04:38:02;3.85;;;2.08;;
16314;SDS011;8266;52.150;4.768;2023-04-03T04:40:29;2.67;;;1.75;;
16314;SDS011;8266;52.150;4.768;2023-04-03T04:42:58;2.42;;;1.90;;
16314;SDS011;8266;52.150;4.768;2023-04-03T04:45:26;4.20;;;1.88;;
16314;SDS011;8266;52.150;4.768;2023-04-03T04:47:54;2.47;;;1.77;;
16314;SDS011;8266;52.150;4.768;2023-04-03T04:50:22;3.95;;;1.73;;
16314;SDS011;8266;52.150;4.768;2023-04-03T04:52:50;2.50;;;1.70;;
16314;SDS011;8266;52.150;4.768;2023-04-03T04:55:19;3.70;;;1.70;;
16314;SDS011;8266;52.150;4.768;2023-04-03T04:57:46;3.00;;;1.58;;
16314;SDS011;8266;52.150;4.768;2023-04-03T05:00:16;3.97;;;1.75;;
16314;SDS011;8266;52.150;4.768;2023-04-03T05:02:43;3.80;;;1.83;;
16314;SDS011;8266;52.150;4.768;2023-04-03T05:05:11;2.60;;;1.88;;
16314;SDS011;8266;52.150;4.768;2023-04-03T05:07:38;2.58;;;2.25;;
16314;SDS011;8266;52.150;4.768;2023-04-03T05:10:06;1.83;;;1.63;;
16314;SDS011;8266;52.150;4.768;2023-04-03T05:12:38;1.73;;;1.58;;
16314;SDS011;8266;52.150;4.768;2023-04-03T05:15:06;6.10;;;2.03;;
16314;SDS011;8266;52.150;4.768;2023-04-03T05:17:36;3.13;;;1.70;;
16314;SDS011;8266;52.150;4.768;2023-04-03T05:20:04;3.45;;;1.88;;
16314;SDS011;8266;52.150;4.768;2023-04-03T05:22:32;3.20;;;1.75;;
16314;SDS011;8266;52.150;4.768;2023-04-03T05:24:59;2.03;;;1.50;;
16314;SDS011;8266;52.150;4.768;2023-04-03T05:27:28;4.32;;;1.88;;
16314;SDS011;8266;52.150;4.768;2023-04-03T05:29:56;5.80;;;2.33;;
16314;SDS011;8266;52.150;4.768;2023-04-03T05:32:26;3.72;;;1.83;;
16314;SDS011;8266;52.150;4.768;2023-04-03T05:34:55;3.15;;;1.90;;
16314;SDS011;8266;52.150;4.768;2023-04-03T05:37:22;3.00;;;2.00;;
16314;SDS011;8266;52.150;4.768;2023-04-03T05:39:49;2.33;;;1.80;;
16314;SDS011;8266;52.150;4.768;2023-04-03T05:42:16;3.33;;;2.10;;
16314;SDS011;8266;52.150;4.768;2023-04-03T05:44:46;3.33;;;2.05;;
16314;SDS011;8266;52.150;4.768;2023-04-03T05:47:15;3.15;;;2.10;;
16314;SDS011;8266;52.150;4.768;2023-04-03T05:49:42;2.67;;;2.08;;
16314;SDS011;8266;52.150;4.768;2023-04-03T05:52:17;3.00;;;2.10;;
16314;SDS011;8266;52.150;4.768;2023-04-03T05:54:59;3.42;;;1.75;;
16314;SDS011;8266;52.150;4.768;2023-04-03T05:57:27;3.25;;;1.95;;
16314;SDS011;8266;52.150;4.768;2023-04-03T05:59:56;2.97;;;2.17;;
16314;SDS011;8266;52.150;4.768;2023-04-03T06:02:24;4.28;;;1.98;;
16314;SDS011;8266;52.150;4.768;2023-04-03T06:04:52;4.18;;;1.80;;
16314;SDS011;8266;52.150;4.768;2023-04-03T06:07:21;4.20;;;2.30;;
16314;SDS011;8266;52.150;4.768;2023-04-03T06:09:53;5.10;;;1.90;;
16314;SDS011;8266;52.150;4.768;2023-04-03T06:12:21;3.25;;;1.67;;
16314;SDS011;8266;52.150;4.768;2023-04-03T06:14:49;3.15;;;1.98;;
16314;SDS011;8266;52.150;4.768;2023-04-03T06:17:17;3.15;;;1.95;;
16314;SDS011;8266;52.150;4.768;2023-04-03T06:19:45;3.38;;;1.95;;
16314;SDS011;8266;52.150;4.768;2023-04-03T06:22:15;4.47;;;1.83;;
16314;SDS011;8266;52.150;4.768;2023-04-03T06:24:43;3.42;;;1.65;;
16314;SDS011;8266;52.150;4.768;2023-04-03T06:27:11;3.38;;;2.33;;
16314;SDS011;8266;52.150;4.768;2023-04-03T06:29:38;4.32;;;2.30;;
16314;SDS011;8266;52.150;4.768;2023-04-03T06:32:06;4.43;;;2.13;;
16314;SDS011;8266;52.150;4.768;2023-04-03T06:34:33;6.95;;;1.90;;
16314;SDS011;8266;52.150;4.768;2023-04-03T06:37:01;4.95;;;2.28;;
16314;SDS011;8266;52.150;4.768;2023-04-03T06:39:28;7.00;;;1.83;;
16314;SDS011;8266;52.150;4.768;2023-04-03T06:41:57;4.20;;;2.10;;
16314;SDS011;8266;52.150;4.768;2023-04-03T06:44:25;4.65;;;1.92;;
16314;SDS011;8266;52.150;4.768;2023-04-03T06:46:52;5.43;;;2.10;;
16314;SDS011;8266;52.150;4.768;2023-04-03T06:49:19;4.15;;;2.08;;
16314;SDS011;8266;52.150;4.768;2023-04-03T06:51:46;4.05;;;1.75;;
16314;SDS011;8266;52.150;4.768;2023-04-03T06:54:14;4.65;;;2.22;;
16314;SDS011;8266;52.150;4.768;2023-04-03T06:56:43;5.43;;;2.10;;
16314;SDS011;8266;52.150;4.768;2023-04-03T06:59:15;5.80;;;2.20;;
16314;SDS011;8266;52.150;4.768;2023-04-03T07:01:42;4.25;;;2.05;;
16314;SDS011;8266;52.150;4.768;2023-04-03T07:04:09;3.65;;;2.13;;
16314;SDS011;8266;52.150;4.768;2023-04-03T07:06:36;5.28;;;1.85;;
16314;SDS011;8266;52.150;4.768;2023-04-03T07:09:03;3.42;;;2.28;;
16314;SDS011;8266;52.150;4.768;2023-04-03T07:11:31;4.03;;;2.03;;
16314;SDS011;8266;52.150;4.768;2023-04-03T07:14:01;4.00;;;1.80;;
16314;SDS011;8266;52.150;4.768;2023-04-03T07:16:29;4.18;;;2.00;;
16314;SDS011;8266;52.150;4.768;2023-04-03T07:18:57;4.65;;;2.05;;
16314;SDS011;8266;52.150;4.768;2023-04-03T07:21:30;4.25;;;2.20;;
16314;SDS011;8266;52.150;4.768;2023-04-03T07:24:04;5.78;;;2.03;;
16314;SDS011;8266;52.150;4.768;2023-04-03T07:26:32;4.50;;;1.95;;
16314;SDS011;8266;52.150;4.768;2023-04-03T07:28:59;4.63;;;2.20;;
16314;SDS011;8266;52.150;4.768;2023-04-03T07:31:30;4.75;;;1.95;;
16314;SDS011;8266;52.150;4.768;2023-04-03T07:33:58;5.22;;;1.85;;
16314;SDS011;8266;52.150;4.768;2023-04-03T07:36:26;7.28;;;2.35;;
16314;SDS011;8266;52.150;4.768;2023-04-03T07:38:53;4.07;;;1.77;;
16314;SDS011;8266;52.150;4.768;2023-04-03T07:41:20;1.77;;;1.10;;
16314;SDS011;8266;52.150;4.768;2023-04-03T07:43:48;5.18;;;2.30;;
16314;SDS011;8266;52.150;4.768;2023-04-03T07:46:17;3.22;;;1.55;;
16314;SDS011;8266;52.150;4.768;2023-04-03T07:48:45;2.67;;;1.42;;
16314;SDS011;8266;52.150;4.768;2023-04-03T07:51:13;4.03;;;1.95;;
16314;SDS011;8266;52.150;4.768;2023-04-03T07:53:40;4.25;;;1.75;;
16314;SDS011;8266;52.150;4.768;2023-04-03T07:56:08;3.55;;;1.63;;
16314;SDS011;8266;52.150;4.768;2023-04-03T07:58:35;5.07;;;1.92;;
16314;SDS011;8266;52.150;4.768;2023-04-03T08:01:03;4.32;;;1.80;;
16314;SDS011;8266;52.150;4.768;2023-04-03T08:03:31;2.45;;;1.40;;
16314;SDS011;8266;52.150;4.768;2023-04-03T08:06:02;2.80;;;1.55;;
16314;SDS011;8266;52.150;4.768;2023-04-03T08:08:30;3.45;;;1.40;;
16314;SDS011;8266;52.150;4.768;2023-04-03T08:10:58;3.60;;;1.40;;
16314;SDS011;8266;52.150;4.768;2023-04-03T08:13:28;6.32;;;1.58;;
16314;SDS011;8266;52.150;4.768;2023-04-03T08:15:56;5.90;;;1.70;;
16314;SDS011;8266;52.150;4.768;2023-04-03T08:18:24;2.35;;;1.45;;
16314;SDS011;8266;52.150;4.768;2023-04-03T08:20:51;3.17;;;1.67;;
16314;SDS011;8266;52.150;4.768;2023-04-03T08:23:20;2.45;;;1.55;;
16314;SDS011;8266;52.150;4.768;2023-04-03T08:25:47;1.85;;;1.23;;
16314;SDS011;8266;52.150;4.768;2023-04-03T08:28:18;2.15;;;1.35;;
16314;SDS011;8266;52.150;4.768;2023-04-03T08:30:48;2.10;;;1.58;;
16314;SDS011;8266;52.150;4.768;2023-04-03T08:33:16;4.75;;;1.52;;
16314;SDS011;8266;52.150;4.768;2023-04-03T08:35:43;2.30;;;1.50;;
16314;SDS011;8266;52.150;4.768;2023-04-03T08:38:10;2.45;;;1.30;;
16314;SDS011;8266;52.150;4.768;2023-04-03T08:40:39;3.15;;;1.52;;
16314;SDS011;8266;52.150;4.768;2023-04-03T08:43:17;1.35;;;1.00;;
16314;SDS011;8266;52.150;4.768;2023-04-03T08:45:57;3.03;;;1.33;;
16314;SDS011;8266;52.150;4.768;2023-04-03T08:48:29;3.58;;;1.30;;
16314;SDS011;8266;52.150;4.768;2023-04-03T08:51:00;1.48;;;1.20;;
16314;SDS011;8266;52.150;4.768;2023-04-03T08:53:32;2.97;;;1.40;;
16314;SDS011;8266;52.150;4.768;2023-04-03T08:56:10;2.35;;;1.30;;
16314;SDS011;8266;52.150;4.768;2023-04-03T08:58:41;3.80;;;1.40;;
16314;SDS011;8266;52.150;4.768;2023-04-03T09:01:17;3.22;;;1.13;;
16314;SDS011;8266;52.150;4.768;2023-04-03T09:03:47;1.98;;;1.08;;
16314;SDS011;8266;52.150;4.768;2023-04-03T09:06:15;1.55;;;0.95;;
16314;SDS011;8266;52.150;4.768;2023-04-03T09:08:45;2.15;;;1.02;;
16314;SDS011;8266;52.150;4.768;2023-04-03T09:11:19;1.85;;;0.90;;
16314;SDS011;8266;52.150;4.768;2023-04-03T09:13:53;1.83;;;0.90;;
16314;SDS011;8266;52.150;4.768;2023-04-03T09:16:33;1.00;;;0.63;;
16314;SDS011;8266;52.150;4.768;2023-04-03T09:19:08;1.55;;;0.80;;
16314;SDS011;8266;52.150;4.768;2023-04-03T09:21:44;1.75;;;0.75;;
16314;SDS011;8266;52.150;4.768;2023-04-03T09:24:12;2.05;;;0.80;;
16314;SDS011;8266;52.150;4.768;2023-04-03T09:26:44;1.90;;;0.63;;
16314;SDS011;8266;52.150;4.768;2023-04-03T09:29:20;1.50;;;0.75;;
16314;SDS011;8266;52.150;4.768;2023-04-03T09:31:49;1.30;;;0.60;;
16314;SDS011;8266;52.150;4.768;2023-04-03T09:34:23;1.48;;;1.15;;
16314;SDS011;8266;52.150;4.768;2023-04-03T09:36:55;1.75;;;0.65;;
16314;SDS011;8266;52.150;4.768;2023-04-03T09:39:25;2.28;;;0.80;;
16314;SDS011;8266;52.150;4.768;2023-04-03T09:42:01;1.20;;;0.70;;
16314;SDS011;8266;52.150;4.768;2023-04-03T09:44:31;1.95;;;0.73;;
16314;SDS011;8266;52.150;4.768;2023-04-03T09:47:00;1.33;;;0.70;;
16314;SDS011;8266;52.150;4.768;2023-04-03T09:49:45;2.40;;;0.90;;
16314;SDS011;8266;52.150;4.768;2023-04-03T09:52:18;1.52;;;0.88;;
16314;SDS011;8266;52.150;4.768;2023-04-03T09:54:46;1.20;;;0.50;;
16314;SDS011;8266;52.150;4.768;2023-04-03T09:57:14;1.38;;;0.55;;
16314;SDS011;8266;52.150;4.768;2023-04-03T09:59:44;1.45;;;0.70;;
16314;SDS011;8266;52.150;4.768;2023-04-03T10:02:24;0.82;;;0.50;;
16314;SDS011;8266;52.150;4.768;2023-04-03T10:04:58;1.02;;;0.50;;
16314;SDS011;8266;52.150;4.768;2023-04-03T10:07:26;0.90;;;0.60;;
16314;SDS011;8266;52.150;4.768;2023-04-03T10:09:56;2.20;;;0.60;;
16314;SDS011;8266;52.150;4.768;2023-04-03T10:12:25;1.45;;;0.65;;
16314;SDS011;8266;52.150;4.768;2023-04-03T10:14:55;1.52;;;0.60;;
16314;SDS011;8266;52.150;4.768;2023-04-03T10:20:21;0.93;;;0.52;;
16314;SDS011;8266;52.150;4.768;2023-04-03T10:22:58;1.30;;;0.50;;
16314;SDS011;8266;52.150;4.768;2023-04-03T10:25:32;1.00;;;0.55;;
16314;SDS011;8266;52.150;4.768;2023-04-03T10:28:05;2.47;;;0.55;;
16314;SDS011;8266;52.150;4.768;2023-04-03T10:30:40;0.88;;;0.50;;
16314;SDS011;8266;52.150;4.768;2023-04-03T10:36:24;1.88;;;0.50;;
16314;SDS011;8266;52.150;4.768;2023-04-03T10:39:04;2.58;;;0.50;;
16314;SDS011;8266;52.150;4.768;2023-04-03T10:41:49;0.75;;;0.57;;
16314;SDS011;8266;52.150;4.768;2023-04-03T10:44:29;1.02;;;0.40;;
16314;SDS011;8266;52.150;4.768;2023-04-03T10:47:05;1.10;;;0.68;;
16314;SDS011;8266;52.150;4.768;2023-04-03T10:49:41;1.95;;;0.50;;
16314;SDS011;8266;52.150;4.768;2023-04-03T10:52:17;0.63;;;0.40;;
16314;SDS011;8266;52.150;4.768;2023-04-03T10:54:51;0.95;;;0.35;;
16314;SDS011;8266;52.150;4.768;2023-04-03T10:57:26;0.95;;;0.30;;
16314;SDS011;8266;52.150;4.768;2023-04-03T10:59:56;0.82;;;0.40;;
16314;SDS011;8266;52.150;4.768;2023-04-03T11:02:28;1.95;;;0.55;;
16314;SDS011;8266;52.150;4.768;2023-04-03T11:04:59;1.35;;;0.40;;
16314;SDS011;8266;52.150;4.768;2023-04-03T11:07:29;0.40;;;0.20;;
16314;SDS011;8266;52.150;4.768;2023-04-03T11:10:04;0.43;;;0.40;;
16314;SDS011;8266;52.150;4.768;2023-04-03T11:12:40;0.75;;;0.35;;
16314;SDS011;8266;52.150;4.768;2023-04-03T11:15:13;1.60;;;0.50;;
16314;SDS011;8266;52.150;4.768;2023-04-03T11:17:46;0.85;;;0.35;;
16314;SDS011;8266;52.150;4.768;2023-04-03T11:20:20;0.60;;;0.30;;
16314;SDS011;8266;52.150;4.768;2023-04-03T11:22:57;0.82;;;0.30;;
16314;SDS011;8266;52.150;4.768;2023-04-03T11:25:29;0.80;;;0.32;;
16314;SDS011;8266;52.150;4.768;2023-04-03T11:27:59;1.00;;;0.45;;
16314;SDS011;8266;52.150;4.768;2023-04-03T11:30:32;0.60;;;0.30;;
16314;SDS011;8266;52.150;4.768;2023-04-03T11:36:04;1.15;;;0.40;;
16314;SDS011;8266;52.150;4.768;2023-04-03T11:38:36;0.40;;;0.30;;
16314;SDS011;8266;52.150;4.768;2023-04-03T11:41:06;1.23;;;0.55;;
16314;SDS011;8266;52.150;4.768;2023-04-03T11:43:39;0.52;;;0.20;;
16314;SDS011;8266;52.150;4.768;2023-04-03T11:46:09;0.30;;;0.30;;
16314;SDS011;8266;52.150;4.768;2023-04-03T11:48:44;0.30;;;0.25;;
16314;SDS011;8266;52.150;4.768;2023-04-03T12:12:46;0.50;;;0.30;;
16314;SDS011;8266;52.150;4.768;2023-04-03T12:24:26;0.82;;;0.45;;
16314;SDS011;8266;52.150;4.768;2023-04-03T12:27:02;0.98;;;0.50;;
16314;SDS011;8266;52.150;4.768;2023-04-03T12:29:37;0.40;;;0.32;;
16314;SDS011;8266;52.150;4.768;2023-04-03T12:32:13;0.65;;;0.35;;
16314;SDS011;8266;52.150;4.768;2023-04-03T12:34:58;0.70;;;0.65;;
16314;SDS011;8266;52.150;4.768;2023-04-03T12:37:39;1.00;;;0.43;;
16314;SDS011;8266;52.150;4.768;2023-04-03T12:40:16;0.98;;;0.50;;
16314;SDS011;8266;52.150;4.768;2023-04-03T12:45:50;1.02;;;0.40;;
16314;SDS011;8266;52.150;4.768;2023-04-03T12:48:25;1.35;;;0.60;;
16314;SDS011;8266;52.150;4.768;2023-04-03T12:50:56;1.50;;;0.45;;
16314;SDS011;8266;52.150;4.768;2023-04-03T12:53:25;1.25;;;0.40;;
16314;SDS011;8266;52.150;4.768;2023-04-03T12:55:55;0.57;;;0.57;;
16314;SDS011;8266;52.150;4.768;2023-04-03T12:58:24;1.65;;;0.50;;
16314;SDS011;8266;52.150;4.768;2023-04-03T13:00:59;1.58;;;0.50;;
16314;SDS011;8266;52.150;4.768;2023-04-03T13:03:28;1.30;;;0.57;;
16314;SDS011;8266;52.150;4.768;2023-04-03T13:05:58;1.30;;;0.70;;
16314;SDS011;8266;52.150;4.768;2023-04-03T13:08:28;0.63;;;0.57;;
16314;SDS011;8266;52.150;4.768;2023-04-03T13:10:58;1.27;;;0.60;;
16314;SDS011;8266;52.150;4.768;2023-04-03T13:13:28;1.40;;;0.68;;
16314;SDS011;8266;52.150;4.768;2023-04-03T13:15:56;0.70;;;0.40;;
16314;SDS011;8266;52.150;4.768;2023-04-03T13:18:24;1.23;;;0.50;;
16314;SDS011;8266;52.150;4.768;2023-04-03T13:20:58;1.75;;;0.40;;
16314;SDS011;8266;52.150;4.768;2023-04-03T13:23:29;2.08;;;0.70;;
16314;SDS011;8266;52.150;4.768;2023-04-03T13:25:58;1.40;;;0.50;;
16314;SDS011;8266;52.150;4.768;2023-04-03T13:28:28;0.80;;;0.63;;
16314;SDS011;8266;52.150;4.768;2023-04-03T13:31:02;0.60;;;0.50;;
16314;SDS011;8266;52.150;4.768;2023-04-03T13:33:33;0.75;;;0.60;;
16314;SDS011;8266;52.150;4.768;2023-04-03T13:36:05;1.67;;;0.50;;
16314;SDS011;8266;52.150;4.768;2023-04-03T13:38:39;2.45;;;0.60;;
16314;SDS011;8266;52.150;4.768;2023-04-03T13:41:21;0.65;;;0.43;;
16314;SDS011;8266;52.150;4.768;2023-04-03T13:43:51;2.33;;;0.60;;
16314;SDS011;8266;52.150;4.768;2023-04-03T13:46:24;1.48;;;0.50;;
16314;SDS011;8266;52.150;4.768;2023-04-03T13:48:55;1.67;;;0.70;;
16314;SDS011;8266;52.150;4.768;2023-04-03T13:51:25;1.20;;;0.60;;
16314;SDS011;8266;52.150;4.768;2023-04-03T13:53:55;0.70;;;0.43;;
16314;SDS011;8266;52.150;4.768;2023-04-03T13:56:25;1.10;;;0.68;;
16314;SDS011;8266;52.150;4.768;2023-04-03T13:58:57;1.40;;;0.45;;
16314;SDS011;8266;52.150;4.768;2023-04-03T14:01:37;0.98;;;0.70;;
16314;SDS011;8266;52.150;4.768;2023-04-03T14:04:16;1.67;;;0.60;;
16314;SDS011;8266;52.150;4.768;2023-04-03T14:06:47;2.60;;;0.75;;
16314;SDS011;8266;52.150;4.768;2023-04-03T14:09:15;0.95;;;0.45;;
16314;SDS011;8266;52.150;4.768;2023-04-03T14:11:43;1.35;;;0.60;;
16314;SDS011;8266;52.150;4.768;2023-04-03T14:14:13;2.33;;;0.80;;
16314;SDS011;8266;52.150;4.768;2023-04-03T14:16:44;0.90;;;0.60;;
16314;SDS011;8266;52.150;4.768;2023-04-03T14:19:17;2.08;;;0.50;;
16314;SDS011;8266;52.150;4.768;2023-04-03T14:21:48;0.80;;;0.35;;
16314;SDS011;8266;52.150;4.768;2023-04-03T14:24:17;1.08;;;0.70;;
16314;SDS011;8266;52.150;4.768;2023-04-03T14:26:45;0.93;;;0.60;;
16314;SDS011;8266;52.150;4.768;2023-04-03T14:29:13;3.35;;;0.70;;
16314;SDS011;8266;52.150;4.768;2023-04-03T14:31:40;0.95;;;0.68;;
16314;SDS011;8266;52.150;4.768;2023-04-03T14:34:11;2.50;;;0.95;;
16314;SDS011;8266;52.150;4.768;2023-04-03T14:36:40;0.60;;;0.60;;
16314;SDS011;8266;52.150;4.768;2023-04-03T14:39:10;1.10;;;0.70;;
16314;SDS011;8266;52.150;4.768;2023-04-03T14:41:42;1.30;;;0.50;;
16314;SDS011;8266;52.150;4.768;2023-04-03T14:44:10;1.38;;;0.50;;
16314;SDS011;8266;52.150;4.768;2023-04-03T14:46:40;0.95;;;0.85;;
16314;SDS011;8266;52.150;4.768;2023-04-03T14:49:13;2.25;;;0.80;;
16314;SDS011;8266;52.150;4.768;2023-04-03T14:51:41;1.05;;;0.70;;
16314;SDS011;8266;52.150;4.768;2023-04-03T14:54:13;0.68;;;0.50;;
16314;SDS011;8266;52.150;4.768;2023-04-03T14:56:42;1.95;;;0.80;;
16314;SDS011;8266;52.150;4.768;2023-04-03T14:59:09;0.98;;;0.65;;
16314;SDS011;8266;52.150;4.768;2023-04-03T15:01:42;1.10;;;0.57;;
16314;SDS011;8266;52.150;4.768;2023-04-03T15:04:10;3.08;;;0.95;;
16314;SDS011;8266;52.150;4.768;2023-04-03T15:06:39;4.82;;;1.40;;
16314;SDS011;8266;52.150;4.768;2023-04-03T15:09:09;1.02;;;0.70;;
16314;SDS011;8266;52.150;4.768;2023-04-03T15:11:44;1.88;;;0.90;;
16314;SDS011;8266;52.150;4.768;2023-04-03T15:14:12;2.30;;;0.98;;
16314;SDS011;8266;52.150;4.768;2023-04-03T15:16:39;1.35;;;0.80;;
16314;SDS011;8266;52.150;4.768;2023-04-03T15:19:08;1.27;;;0.98;;
16314;SDS011;8266;52.150;4.768;2023-04-03T15:21:40;3.45;;;0.73;;
16314;SDS011;8266;52.150;4.768;2023-04-03T15:24:14;1.50;;;0.65;;
16314;SDS011;8266;52.150;4.768;2023-04-03T15:26:42;1.02;;;0.60;;
16314;SDS011;8266;52.150;4.768;2023-04-03T15:29:09;1.52;;;0.80;;
16314;SDS011;8266;52.150;4.768;2023-04-03T15:31:38;1.35;;;0.73;;
16314;SDS011;8266;52.150;4.768;2023-04-03T15:34:06;0.80;;;0.73;;
16314;SDS011;8266;52.150;4.768;2023-04-03T15:36:33;1.52;;;0.80;;
16314;SDS011;8266;52.150;4.768;2023-04-03T15:39:00;1.95;;;0.70;;
16314;SDS011;8266;52.150;4.768;2023-04-03T15:41:28;2.03;;;0.90;;
16314;SDS011;8266;52.150;4.768;2023-04-03T15:43:55;1.20;;;0.90;;
16314;SDS011;8266;52.150;4.768;2023-04-03T15:46:26;2.83;;;1.35;;
16314;SDS011;8266;52.150;4.768;2023-04-03T15:48:53;1.13;;;0.77;;
16314;SDS011;8266;52.150;4.768;2023-04-03T15:51:20;1.70;;;1.20;;
16314;SDS011;8266;52.150;4.768;2023-04-03T15:53:49;1.63;;;0.90;;
16314;SDS011;8266;52.150;4.768;2023-04-03T15:56:16;1.95;;;1.00;;
16314;SDS011;8266;52.150;4.768;2023-04-03T15:58:45;1.65;;;0.70;;